createdAt,value
2023-03-22T06:07:43.231Z,65.65
2023-03-22T06:10:18.324Z,62.20
2023-03-22T06:15:24.605Z,60.35
2023-03-22T06:25:40.559Z,62.05
2023-03-22T06:33:07.484Z,58.03
2023-03-22T06:35:40.019Z,52.72
2023-03-22T06:38:11.257Z,53.73
2023-03-22T06:40:40.760Z,46.80
2023-03-22T06:43:09.291Z,49.58
2023-03-22T06:45:41.144Z,44.33
2023-03-22T06:48:09.779Z,42.17
2023-03-22T06:50:57.138Z,39.90
2023-03-22T06:53:33.648Z,35.50
2023-03-22T07:16:05.318Z,29.60
2023-03-22T07:18:40.755Z,28.98
2023-03-22T07:21:09.754Z,30.40
2023-03-22T07:23:40.962Z,31.50
2023-03-22T07:26:13.558Z,30.58
2023-03-22T07:28:44.810Z,28.30
2023-03-22T07:33:53.018Z,32.63
2023-03-22T07:36:25.816Z,30.45
2023-03-22T07:38:55.502Z,33.70
2023-03-22T07:41:31.289Z,31.35
2023-03-22T07:44:24.819Z,29.33
2023-03-22T07:47:13.750Z,30.92
2023-03-22T07:49:50.171Z,30.55
2023-03-22T07:54:55.500Z,29.33
2023-03-22T07:57:25.048Z,29.90
2023-03-22T07:59:57.470Z,31.52
2023-03-22T08:02:31.950Z,33.95
2023-03-22T08:05:01.709Z,35.95
2023-03-22T08:07:37.668Z,30.77
2023-03-22T08:10:06.866Z,30.02
2023-03-22T08:15:14.157Z,37.53
2023-03-22T08:17:43.956Z,34.42
2023-03-22T08:20:18.970Z,28.13
2023-03-22T08:22:56.054Z,32.45
2023-03-22T08:25:43.834Z,32.80
2023-03-22T08:30:46.341Z,30.63
2023-03-22T08:33:16.297Z,32.13
2023-03-22T08:38:15.591Z,33.75
2023-03-22T08:40:48.515Z,29.23
2023-03-22T08:43:21.026Z,34.60
2023-03-22T08:45:49.411Z,29.10
2023-03-22T08:48:22.556Z,33.13
2023-03-22T08:51:07.626Z,30.33
2023-03-22T08:53:52.088Z,30.17
2023-03-22T08:56:39.173Z,31.67
2023-03-22T08:59:25.297Z,34.70
2023-03-22T09:02:13.950Z,28.02
2023-03-22T09:04:43.695Z,29.38
2023-03-22T09:07:12.099Z,29.67
2023-03-22T09:09:41.704Z,31.30
2023-03-22T09:12:11.170Z,33.35
2023-03-22T09:14:40.154Z,31.40
2023-03-22T09:17:09.542Z,27.92
2023-03-22T09:19:38.179Z,29.27
2023-03-22T09:22:07.116Z,28.67
2023-03-22T09:24:43.550Z,34.97
2023-03-22T09:27:11.942Z,30.95
2023-03-22T09:29:40.627Z,25.98
2023-03-22T09:32:13.981Z,29.63
2023-03-22T09:34:43.182Z,28.00
2023-03-22T09:37:13.180Z,27.77
2023-03-22T09:39:47.506Z,28.58
2023-03-22T09:42:40.476Z,27.95
2023-03-22T09:45:32.360Z,28.35
2023-03-22T09:48:01.168Z,34.58
2023-03-22T09:50:32.682Z,25.48
2023-03-22T09:53:01.509Z,26.48
2023-03-22T09:56:06.357Z,27.50
2023-03-22T09:58:56.747Z,34.05
2023-03-22T10:01:54.620Z,30.75
2023-03-22T10:04:56.006Z,26.88
2023-03-22T10:08:01.809Z,28.25
2023-03-22T10:10:30.174Z,36.40
2023-03-22T10:13:06.491Z,29.88
2023-03-22T10:15:59.243Z,27.30
2023-03-22T10:18:38.630Z,31.15
2023-03-22T10:21:14.095Z,30.42
2023-03-22T10:23:51.569Z,35.78
2023-03-22T10:26:30.445Z,29.48
2023-03-22T10:29:36.331Z,26.85
2023-03-22T10:32:56.989Z,49.83
2023-03-22T10:35:26.745Z,25.90
2023-03-22T10:37:57.959Z,24.33
2023-03-22T10:40:34.654Z,30.60
2023-03-22T10:43:26.329Z,28.60
2023-03-22T10:45:55.880Z,29.33
2023-03-22T10:48:33.278Z,25.92
2023-03-22T10:51:02.360Z,23.88
2023-03-22T10:53:42.744Z,21.70
2023-03-22T10:56:18.857Z,19.67
2023-03-22T10:58:47.913Z,19.05
2023-03-22T11:01:27.871Z,23.60
2023-03-22T11:04:22.255Z,27.80
2023-03-22T11:06:56.044Z,23.17
2023-03-22T11:09:25.113Z,22.45
2023-03-22T11:11:58.021Z,29.52
2023-03-22T11:14:32.863Z,21.30
2023-03-22T11:17:08.724Z,21.05
2023-03-22T11:19:56.116Z,20.27
2023-03-22T11:22:45.392Z,19.25
2023-03-22T11:25:28.100Z,22.38
2023-03-22T11:28:08.124Z,22.38
2023-03-22T11:30:37.159Z,21.73
2023-03-22T11:33:21.139Z,22.67
2023-03-22T11:35:56.224Z,32.90
2023-03-22T11:38:37.365Z,22.48
2023-03-22T11:41:20.673Z,22.70
2023-03-22T11:43:54.354Z,22.48
2023-03-22T11:46:23.252Z,21.50
2023-03-22T11:48:53.671Z,33.33
2023-03-22T11:51:32.668Z,24.63
2023-03-22T11:54:13.265Z,28.95
2023-03-22T11:56:47.599Z,31.48
2023-03-22T11:59:23.909Z,22.23
2023-03-22T12:02:14.377Z,21.67
2023-03-22T12:04:44.989Z,26.05
2023-03-22T12:07:21.011Z,22.05
2023-03-22T12:10:28.158Z,24.40
2023-03-22T12:13:04.588Z,27.95
2023-03-22T12:15:37.175Z,21.75
2023-03-22T12:18:10.598Z,20.75
2023-03-22T12:20:59.462Z,22.05
2023-03-22T12:23:35.060Z,23.00
2023-03-22T12:26:12.662Z,21.95
2023-03-22T12:28:56.463Z,27.92
2023-03-22T12:31:30.982Z,20.80
2023-03-22T12:34:18.199Z,20.98
2023-03-22T12:36:56.204Z,19.63
2023-03-22T12:39:32.059Z,22.02
2023-03-22T12:42:13.016Z,19.42
2023-03-22T12:44:44.931Z,23.00
2023-03-22T12:47:40.720Z,23.17
2023-03-22T12:50:19.805Z,19.75
2023-03-22T12:52:50.745Z,22.05
2023-03-22T12:55:22.055Z,21.02
2023-03-22T12:57:54.720Z,16.73
2023-03-22T13:00:35.573Z,15.73
2023-03-22T13:03:29.188Z,20.15
2023-03-22T13:06:23.542Z,19.02
2023-03-22T13:09:10.672Z,21.17
2023-03-22T13:11:38.978Z,26.63
2023-03-22T13:14:07.722Z,29.30
2023-03-22T13:16:53.544Z,16.67
2023-03-22T13:19:36.945Z,21.83
2023-03-22T13:22:37.984Z,17.85
2023-03-22T13:25:23.785Z,17.00
2023-03-22T13:28:03.651Z,17.30
2023-03-22T13:30:47.698Z,20.70
2023-03-22T13:33:25.933Z,18.83
2023-03-22T13:36:07.829Z,18.83
2023-03-22T13:38:42.381Z,19.65
2023-03-22T13:41:28.804Z,16.70
2023-03-22T13:44:17.183Z,17.77
2023-03-22T13:46:51.590Z,19.40
2023-03-22T13:49:53.367Z,17.73
2023-03-22T13:52:43.371Z,24.85
2023-03-22T13:55:36.340Z,18.77
2023-03-22T13:58:06.025Z,22.00
2023-03-22T14:00:38.929Z,19.00
2023-03-22T14:03:16.191Z,19.08
2023-03-22T14:05:46.822Z,20.15
2023-03-22T14:08:28.572Z,17.45
2023-03-22T14:13:37.198Z,16.73
2023-03-22T14:16:37.900Z,20.65
2023-03-22T14:19:07.566Z,22.00
2023-03-22T14:21:39.037Z,24.00
